Time;durP1;ratioP1;P1;durP2;ratioP2;P2;SDS_P1;SDS_P2;PMS_P1;PMS_P2;Temp;Humidity;BMP_temperature;BMP_pressure;BME280_temperature;BME280_humidity;BME280_pressure;Samples;Min_cycle;Max_cycle;Signal;HPM_P1;HPM_P2
2023/06/10 00:00:07;;;;;;;9.20;6.03;;;;;;;22.68;50.89;101196.66;5122624;29;20058;-71
2023/06/10 00:02:39;;;;;;;7.05;5.50;;;;;;;22.61;51.29;101187.34;5122479;29;20071;-71
2023/06/10 00:05:10;;;;;;;7.55;5.75;;;;;;;22.36;52.14;101188.72;5122499;29;20060;-71
2023/06/10 00:07:42;;;;;;;7.22;5.82;;;;;;;22.35;53.25;101197.63;5122933;29;20060;-70
2023/06/10 00:10:13;;;;;;;10.50;5.50;;;;;;;22.30;53.84;101200.53;5122590;29;20499;-70
2023/06/10 00:12:44;;;;;;;8.80;6.93;;;;;;;22.52;52.69;101199.31;5122285;29;20160;-70
2023/06/10 00:15:16;;;;;;;9.37;6.00;;;;;;;22.35;53.21;101203.78;5122588;29;20036;-70
2023/06/10 00:17:47;;;;;;;11.50;5.83;;;;;;;22.22;53.16;101205.38;5122582;29;20036;-70
2023/06/10 00:20:22;;;;;;;7.07;6.17;;;;;;;22.16;53.51;101206.56;5120640;29;20028;-69
2023/06/10 00:22:53;;;;;;;7.97;6.20;;;;;;;22.00;54.10;101201.25;5122177;29;20040;-70
2023/06/10 00:25:25;;;;;;;6.20;5.57;;;;;;;21.85;53.87;101197.63;5120915;29;20059;-70
2023/06/10 00:27:57;;;;;;;6.95;6.25;;;;;;;22.03;54.21;101205.53;5122001;29;20028;-70
2023/06/10 00:30:28;;;;;;;9.23;6.17;;;;;;;21.90;54.21;101199.19;5121944;29;20495;-70
2023/06/10 00:32:59;;;;;;;8.83;6.00;;;;;;;21.80;54.26;101206.75;5121980;29;20052;-70
2023/06/10 00:35:31;;;;;;;8.63;6.05;;;;;;;21.76;55.59;101208.72;5122184;29;20047;-70
2023/06/10 00:38:02;;;;;;;8.90;6.43;;;;;;;21.71;54.41;101208.13;5120800;29;20429;-69
2023/06/10 00:40:39;;;;;;;7.33;5.97;;;;;;;21.66;55.25;101210.16;5121788;29;20131;-70
2023/06/10 00:43:10;;;;;;;12.38;6.35;;;;;;;21.46;55.69;101209.38;5122321;29;20519;-70
2023/06/10 00:45:42;;;;;;;10.27;6.30;;;;;;;21.46;55.55;101205.84;5121684;29;20032;-70
2023/06/10 00:48:13;;;;;;;8.67;6.77;;;;;;;21.36;56.44;101215.22;5122023;29;20044;-70
2023/06/10 00:50:48;;;;;;;9.03;6.40;;;;;;;21.24;57.17;101214.91;5121701;29;20039;-69
2023/06/10 00:53:21;;;;;;;9.30;6.10;;;;;;;21.11;56.76;101212.03;5121692;29;20036;-70
2023/06/10 00:55:53;;;;;;;10.45;6.18;;;;;;;21.11;57.45;101198.78;5121832;29;20384;-70
2023/06/10 00:58:25;;;;;;;7.43;6.57;;;;;;;20.93;57.28;101205.00;5120277;29;20110;-70
2023/06/10 01:00:57;;;;;;;9.27;6.13;;;;;;;20.93;58.30;101202.34;5121508;29;20038;-70
2023/06/10 01:03:29;;;;;;;8.82;6.43;;;;;;;20.88;58.17;101196.41;5122052;29;20353;-69
2023/06/10 01:06:29;;;;;;;9.57;6.45;;;;;;;20.79;57.88;101202.19;5121381;29;20056;-70
2023/06/10 01:09:30;;;;;;;8.63;5.85;;;;;;;20.82;58.62;101207.28;5120910;29;20039;-72
2023/06/10 01:12:11;;;;;;;7.88;6.43;;;;;;;20.53;59.43;101201.63;5121511;29;20578;-71
2023/06/10 01:14:43;;;;;;;11.27;7.15;;;;;;;20.56;59.53;101206.78;5120968;29;20032;-70
2023/06/10 01:17:16;;;;;;;6.90;5.72;;;;;;;20.39;59.39;101208.41;5122064;29;20357;-70
2023/06/10 01:19:57;;;;;;;9.90;7.00;;;;;;;20.40;59.16;101204.84;5121065;29;20036;-69
2023/06/10 01:22:32;;;;;;;10.43;6.65;;;;;;;20.32;60.48;101214.94;5120295;29;20533;-69
2023/06/10 01:25:03;;;;;;;9.00;6.55;;;;;;;20.20;60.54;101211.03;5121311;29;20028;-70
2023/06/10 01:27:39;;;;;;;7.78;6.32;;;;;;;20.17;60.08;101213.88;5104018;29;20051;-69
2023/06/10 01:30:23;;;;;;;8.30;6.50;;;;;;;20.07;60.60;101215.19;5121346;29;20036;-69
2023/06/10 01:32:54;;;;;;;7.28;6.53;;;;;;;20.00;61.40;101214.63;5120965;29;20042;-70
2023/06/10 01:35:27;;;;;;;9.50;6.90;;;;;;;19.89;60.78;101216.06;5120971;29;20032;-71
2023/06/10 01:38:01;;;;;;;8.10;7.03;;;;;;;19.77;62.15;101214.78;5120907;29;20375;-70
2023/06/10 01:40:33;;;;;;;10.93;6.75;;;;;;;19.65;61.90;101218.81;5120923;29;20031;-71
2023/06/10 01:43:04;;;;;;;8.93;6.40;;;;;;;19.69;62.46;101223.06;5120964;29;20481;-70
2023/06/10 01:45:36;;;;;;;10.17;6.97;;;;;;;19.56;63.61;101220.09;5120881;29;20043;-70
2023/06/10 01:48:07;;;;;;;13.23;7.40;;;;;;;19.57;63.32;101213.84;5121212;29;20037;-70
2023/06/10 01:50:39;;;;;;;8.63;6.90;;;;;;;19.50;63.13;101217.72;5121162;29;20429;-70
2023/06/10 01:53:10;;;;;;;9.47;7.50;;;;;;;19.72;64.51;101217.59;5120743;29;20095;-71
2023/06/10 01:55:42;;;;;;;9.47;7.33;;;;;;;19.46;64.41;101217.00;5120697;29;20551;-71
2023/06/10 01:58:13;;;;;;;8.83;6.87;;;;;;;19.26;64.20;101214.31;5119818;29;20103;-70
2023/06/10 02:00:44;;;;;;;8.57;6.73;;;;;;;19.24;64.64;101214.41;5119522;29;20035;-70
2023/06/10 02:03:16;;;;;;;10.67;7.37;;;;;;;19.36;64.27;101214.78;5119321;29;20043;-70
2023/06/10 02:05:47;;;;;;;7.53;6.43;;;;;;;19.24;64.06;101221.44;5120381;29;20548;-70
2023/06/10 02:08:18;;;;;;;10.83;7.50;;;;;;;19.00;65.21;101221.56;5120713;29;20492;-70
2023/06/10 02:10:50;;;;;;;9.30;7.23;;;;;;;19.04;64.41;101225.78;5120481;29;20044;-69
2023/06/10 02:13:21;;;;;;;10.53;7.07;;;;;;;19.08;64.74;101221.25;5120664;29;20060;-70
2023/06/10 02:15:54;;;;;;;7.53;6.43;;;;;;;19.03;65.41;101217.91;5120581;29;20060;-70
2023/06/10 02:18:26;;;;;;;;;;;;;;;19.07;62.31;101225.66;5120951;29;20032;-69
2023/06/10 02:20:58;;;;;;;11.82;7.95;;;;;;;19.00;65.99;101232.13;5120518;29;19911;-69
2023/06/10 02:23:29;;;;;;;9.10;7.07;;;;;;;18.93;66.36;101231.53;5119330;29;20492;-69
2023/06/10 02:26:02;;;;;;;9.73;7.47;;;;;;;18.79;66.21;101225.91;5120709;29;20040;-69
2023/06/10 02:28:33;;;;;;;;;;;;;;;18.87;62.93;101226.47;5120925;29;20031;-69
2023/06/10 02:31:04;;;;;;;8.05;6.68;;;;;;;18.76;65.72;101232.16;5120800;29;19919;-70
2023/06/10 02:33:39;;;;;;;11.23;7.73;;;;;;;18.61;66.15;101230.09;5123674;29;20504;-70
2023/06/10 02:36:15;;;;;;;8.13;7.25;;;;;;;18.75;66.10;101233.06;5124014;29;20487;-70
2023/06/10 02:38:46;;;;;;;8.77;6.93;;;;;;;18.73;66.07;101228.78;5124086;29;20036;-70
2023/06/10 02:41:18;;;;;;;8.80;7.40;;;;;;;18.62;66.80;101228.34;5123891;29;20494;-70
2023/06/10 02:43:49;;;;;;;12.70;8.10;;;;;;;18.44;67.08;101222.88;5124044;29;20051;-70
2023/06/10 02:46:21;;;;;;;8.47;7.57;;;;;;;18.64;66.33;101227.34;5123724;29;20043;-70
2023/06/10 02:48:52;;;;;;;17.40;8.37;;;;;;;18.46;67.16;101236.00;5123928;29;20388;-69
2023/06/10 02:51:23;;;;;;;11.10;7.80;;;;;;;18.39;67.81;101233.59;5124271;29;20464;-69
2023/06/10 02:53:55;;;;;;;8.07;7.27;;;;;;;18.42;68.02;101230.00;5122743;29;20091;-70
2023/06/10 02:56:26;;;;;;;9.03;7.43;;;;;;;18.36;68.11;101238.13;5122722;29;20040;-70
2023/06/10 02:58:58;;;;;;;12.53;8.27;;;;;;;18.30;68.43;101233.94;5124132;29;20397;-70
2023/06/10 03:01:31;;;;;;;11.83;7.97;;;;;;;18.25;68.60;101235.91;5123346;29;20292;-70
2023/06/10 03:04:04;;;;;;;10.73;8.80;;;;;;;18.22;69.25;101230.72;5123724;29;20111;-70
2023/06/10 03:06:36;;;;;;;8.68;7.68;;;;;;;18.25;69.91;101235.91;5123586;29;20056;-71
2023/06/10 03:09:07;;;;;;;10.23;8.13;;;;;;;18.19;69.42;101238.75;5123619;29;20039;-71
2023/06/10 03:11:38;;;;;;;9.30;8.40;;;;;;;17.97;70.22;101230.81;5123568;29;20120;-70
2023/06/10 03:14:10;;;;;;;10.83;8.63;;;;;;;17.99;70.07;101231.59;5123535;29;20036;-71
2023/06/10 03:16:42;;;;;;;9.90;8.90;;;;;;;17.89;70.73;101232.84;5123687;29;20036;-70
2023/06/10 03:19:13;;;;;;;9.60;8.45;;;;;;;17.99;71.20;101239.50;5123401;29;20032;-70
2023/06/10 03:21:45;;;;;;;10.47;8.97;;;;;;;18.00;71.30;101244.72;5123685;29;20391;-70
2023/06/10 03:24:17;;;;;;;8.97;8.07;;;;;;;17.86;71.46;101250.47;5122515;29;20047;-70
2023/06/10 03:26:48;;;;;;;13.18;9.27;;;;;;;17.84;71.65;101241.75;5122879;29;20331;-70
2023/06/10 03:29:20;;;;;;;10.17;8.30;;;;;;;17.87;71.69;101246.06;5123156;29;20063;-70
2023/06/10 03:31:51;;;;;;;11.38;9.77;;;;;;;17.76;71.83;101246.44;5122695;29;20054;-70
2023/06/10 03:34:23;;;;;;;10.03;9.03;;;;;;;17.71;72.46;101247.50;5122905;29;20040;-70
2023/06/10 03:36:54;;;;;;;11.63;9.20;;;;;;;17.65;72.37;101249.44;5123618;29;20111;-71
2023/06/10 03:39:28;;;;;;;10.37;9.37;;;;;;;17.63;72.76;101247.81;5121868;29;20043;-70
2023/06/10 03:42:00;;;;;;;12.50;9.30;;;;;;;17.58;73.26;101254.97;5122782;29;20067;-70
2023/06/10 03:44:31;;;;;;;10.93;8.63;;;;;;;17.73;73.18;101265.00;5121897;29;20078;-71
2023/06/10 03:47:03;;;;;;;15.80;9.00;;;;;;;17.56;73.47;101257.66;5122687;29;20377;-69
2023/06/10 03:49:36;;;;;;;12.43;9.80;;;;;;;17.63;73.40;101258.34;5122610;29;20096;-69
2023/06/10 03:52:07;;;;;;;10.77;9.63;;;;;;;17.53;73.80;101257.78;5122473;29;20040;-69
2023/06/10 03:54:39;;;;;;;12.47;9.67;;;;;;;17.57;73.56;101258.56;5122255;29;20103;-69
2023/06/10 03:57:10;;;;;;;15.83;9.77;;;;;;;17.65;74.25;101267.06;5122214;29;20091;-70
2023/06/10 03:59:42;;;;;;;10.93;9.68;;;;;;;17.65;75.19;101265.28;5122689;29;20461;-70
2023/06/10 04:02:13;;;;;;;11.60;9.97;;;;;;;17.71;74.86;101264.22;5122668;29;20036;-69
2023/06/10 04:04:45;;;;;;;11.37;10.20;;;;;;;17.68;73.80;101262.53;5122277;29;20075;-70
2023/06/10 04:07:18;;;;;;;14.10;9.60;;;;;;;17.68;75.16;101264.31;5121789;29;20163;-69
2023/06/10 04:09:50;;;;;;;11.32;10.05;;;;;;;17.58;74.97;101260.25;5122228;29;20063;-69
2023/06/10 04:12:21;;;;;;;11.97;10.00;;;;;;;17.55;75.03;101260.34;5121943;29;20048;-69
2023/06/10 04:14:53;;;;;;;10.87;9.80;;;;;;;17.63;75.44;101259.19;5122688;29;20282;-69
2023/06/10 04:17:24;;;;;;;11.97;10.67;;;;;;;17.54;75.56;101267.41;5121994;29;20035;-70
2023/06/10 04:19:56;;;;;;;14.80;10.43;;;;;;;17.68;75.21;101265.16;5122123;29;20067;-70
2023/06/10 04:22:27;;;;;;;11.57;10.27;;;;;;;17.72;76.45;101273.81;5122445;29;20112;-71
2023/06/10 04:24:58;;;;;;;14.73;10.80;;;;;;;17.65;75.87;101270.53;5120579;29;20039;-70
2023/06/10 04:27:30;;;;;;;10.97;9.87;;;;;;;17.59;75.77;101275.16;5120579;29;20032;-70
2023/06/10 04:30:04;;;;;;;14.15;10.85;;;;;;;17.71;76.04;101281.78;5122631;29;20036;-70
2023/06/10 04:32:35;;;;;;;11.20;9.98;;;;;;;17.71;75.97;101277.38;5121417;29;20032;-70
2023/06/10 04:35:07;;;;;;;12.83;10.73;;;;;;;17.79;75.68;101283.25;5121837;29;20325;-69
2023/06/10 04:37:38;;;;;;;12.30;9.88;;;;;;;17.65;76.38;101278.44;5121841;29;20384;-69
2023/06/10 04:40:10;;;;;;;14.53;10.67;;;;;;;17.71;75.48;101285.31;5121469;29;20028;-70
2023/06/10 04:42:42;;;;;;;13.27;9.90;;;;;;;17.78;76.22;101286.78;5121645;29;20028;-69
2023/06/10 04:45:16;;;;;;;15.13;11.27;;;;;;;17.82;75.42;101282.28;5121989;29;20039;-69
2023/06/10 04:47:47;;;;;;;13.50;10.48;;;;;;;17.89;75.02;101285.56;5121457;29;20036;-70
2023/06/10 04:50:19;;;;;;;12.57;11.33;;;;;;;17.95;75.30;101288.88;5121507;29;20032;-70
2023/06/10 04:52:50;;;;;;;14.75;10.68;;;;;;;17.96;75.31;101287.09;5121309;29;20483;-70
2023/06/10 04:55:21;;;;;;;13.67;11.43;;;;;;;17.97;74.71;101288.84;5120201;29;20036;-69
2023/06/10 04:57:53;;;;;;;12.70;11.10;;;;;;;18.00;75.05;101289.56;5121540;29;20036;-69
2023/06/10 05:00:24;;;;;;;11.40;10.30;;;;;;;18.13;74.04;101287.34;5121250;29;20043;-69
2023/06/10 05:02:59;;;;;;;13.20;10.40;;;;;;;18.25;74.08;101296.59;5120981;29;20036;-72
2023/06/10 05:05:30;;;;;;;13.90;10.68;;;;;;;18.20;74.13;101293.25;5121089;29;20036;-69
2023/06/10 05:08:01;;;;;;;11.77;10.13;;;;;;;18.38;73.66;101295.22;5120728;29;20052;-69
2023/06/10 05:10:34;;;;;;;14.40;10.43;;;;;;;18.35;73.75;101292.72;5121436;29;20155;-69
2023/06/10 05:13:05;;;;;;;15.05;11.32;;;;;;;18.53;73.11;101290.28;5121288;29;20095;-69
2023/06/10 05:15:37;;;;;;;12.10;10.70;;;;;;;18.59;73.35;101296.22;5121026;29;20111;-70
2023/06/10 05:18:08;;;;;;;12.30;11.07;;;;;;;18.48;73.14;101287.84;5121768;29;20032;-70
2023/06/10 05:20:39;;;;;;;13.43;11.47;;;;;;;18.65;72.38;101294.25;5120501;29;20036;-70
2023/06/10 05:23:11;;;;;;;14.70;10.67;;;;;;;18.71;71.93;101288.72;5121265;29;20481;-70
2023/06/10 05:25:42;;;;;;;11.37;10.13;;;;;;;18.63;71.87;101286.38;5121333;29;20168;-70
2023/06/10 05:28:13;;;;;;;12.27;11.00;;;;;;;18.74;72.32;101286.81;5120586;29;20040;-69
2023/06/10 05:30:45;;;;;;;11.70;10.50;;;;;;;18.80;71.96;101290.13;5119233;29;20511;-69
2023/06/10 05:33:16;;;;;;;12.77;10.60;;;;;;;18.90;71.02;101291.53;5120733;29;20384;-69
2023/06/10 05:35:48;;;;;;;12.03;10.83;;;;;;;19.01;70.54;101284.03;5119159;29;20452;-70
2023/06/10 05:38:19;;;;;;;11.73;9.93;;;;;;;19.02;69.90;101285.75;5120874;29;20039;-70
2023/06/10 05:40:50;;;;;;;12.83;9.50;;;;;;;19.10;69.66;101288.09;5120434;29;20113;-70
2023/06/10 05:43:22;;;;;;;11.03;10.00;;;;;;;19.15;69.41;101280.84;5120735;29;20076;-71
2023/06/10 05:45:53;;;;;;;15.10;10.35;;;;;;;19.22;69.40;101287.56;5120920;29;20035;-70
2023/06/10 05:48:25;;;;;;;12.87;10.30;;;;;;;19.26;68.60;101288.34;5120548;29;20400;-71
2023/06/10 05:50:56;;;;;;;11.37;9.63;;;;;;;19.35;69.76;101289.72;5120855;29;20522;-72
2023/06/10 05:53:27;;;;;;;12.70;9.37;;;;;;;19.47;69.27;101294.50;5120167;29;20028;-70
2023/06/10 05:55:59;;;;;;;12.33;9.73;;;;;;;19.55;68.55;101291.56;5120574;29;20036;-71
2023/06/10 05:58:30;;;;;;;12.13;9.50;;;;;;;19.65;67.91;101296.34;5120642;29;20119;-68
2023/06/10 06:01:02;;;;;;;13.37;9.30;;;;;;;19.68;68.22;101292.75;5120505;29;20132;-69
2023/06/10 06:03:33;;;;;;;15.93;9.50;;;;;;;19.76;67.44;101297.75;5120918;29;20036;-69
2023/06/10 06:06:05;;;;;;;11.10;9.93;;;;;;;19.85;66.85;101297.31;5120473;29;20036;-69
2023/06/10 06:08:36;;;;;;;16.50;9.93;;;;;;;19.99;66.39;101300.22;5124355;29;20103;-69
2023/06/10 06:11:08;;;;;;;11.60;9.80;;;;;;;20.03;67.75;101298.31;5123140;29;20158;-69
2023/06/10 06:13:39;;;;;;;13.53;9.40;;;;;;;20.13;66.45;101298.78;5124459;29;20028;-69
2023/06/10 06:16:11;;;;;;;15.33;10.63;;;;;;;20.27;65.48;101299.00;5123158;29;20174;-69
2023/06/10 06:18:42;;;;;;;15.30;8.97;;;;;;;20.35;66.19;101296.88;5124157;29;20055;-69
2023/06/10 06:21:14;;;;;;;13.10;9.20;;;;;;;20.34;64.33;101289.00;5124359;29;20039;-70
2023/06/10 06:23:45;;;;;;;12.30;9.70;;;;;;;20.47;65.45;101305.19;5123212;29;20407;-71
2023/06/10 06:26:16;;;;;;;15.20;10.20;;;;;;;20.54;64.24;101296.00;5124702;29;20043;-71
2023/06/10 06:28:48;;;;;;;13.93;9.33;;;;;;;20.55;65.35;101300.38;5123875;29;20123;-70
2023/06/10 06:31:19;;;;;;;14.53;9.60;;;;;;;20.74;63.74;101303.91;5122861;29;20075;-71
2023/06/10 06:33:51;;;;;;;12.03;9.47;;;;;;;20.83;63.88;101310.56;5122612;29;20039;-70
2023/06/10 06:36:22;;;;;;;15.00;9.40;;;;;;;20.93;62.88;101311.84;5124022;29;20044;-70
2023/06/10 06:38:53;;;;;;;11.00;9.10;;;;;;;20.98;61.88;101309.00;5123564;29;20032;-69
2023/06/10 06:41:28;;;;;;;15.83;8.67;;;;;;;21.07;62.10;101305.88;5123744;29;20040;-70
2023/06/10 06:43:59;;;;;;;12.48;9.55;;;;;;;21.11;61.24;101306.59;5123840;29;20508;-69
2023/06/10 06:46:31;;;;;;;12.67;9.17;;;;;;;21.24;61.07;101309.50;5122336;29;20032;-70
2023/06/10 06:49:02;;;;;;;15.33;9.67;;;;;;;21.33;60.92;101308.19;5123640;29;20040;-69
2023/06/10 06:51:33;;;;;;;12.90;9.10;;;;;;;21.44;60.39;101312.00;5123590;29;20035;-69
2023/06/10 06:54:05;;;;;;;10.27;7.97;;;;;;;21.53;59.34;101308.09;5123577;29;20036;-70
2023/06/10 06:56:38;;;;;;;17.48;9.15;;;;;;;21.54;57.88;101316.88;5123909;29;20047;-72
2023/06/10 06:59:09;;;;;;;;;;;;;;;21.70;58.00;101323.13;5123859;29;20028;-69
2023/06/10 07:01:41;;;;;;;10.43;8.47;;;;;;;21.69;57.95;101316.13;5123422;29;20365;-70
2023/06/10 07:04:15;;;;;;;10.60;8.93;;;;;;;21.80;58.19;101315.56;5123981;29;20044;-71
2023/06/10 07:06:46;;;;;;;14.18;8.82;;;;;;;21.91;57.07;101318.53;5123176;29;20063;-71
2023/06/10 07:09:17;;;;;;;10.20;8.23;;;;;;;22.02;56.99;101323.25;5123422;29;20044;-70
2023/06/10 07:11:49;;;;;;;10.97;8.07;;;;;;;22.14;56.04;101325.28;5122893;29;20123;-70
2023/06/10 07:14:20;;;;;;;11.87;9.00;;;;;;;22.35;57.28;101333.09;5122927;29;20040;-71
2023/06/10 07:16:52;;;;;;;8.80;7.60;;;;;;;22.37;56.10;101332.03;5123037;29;20369;-70
2023/06/10 07:19:23;;;;;;;12.90;8.60;;;;;;;22.44;56.46;101332.56;5122071;29;20032;-70
2023/06/10 07:21:54;;;;;;;12.97;8.83;;;;;;;22.55;55.74;101338.16;5123074;29;20481;-70
2023/06/10 07:24:26;;;;;;;12.97;8.20;;;;;;;22.66;55.06;101326.09;5122751;29;20046;-70
2023/06/10 07:26:57;;;;;;;15.17;7.57;;;;;;;22.83;55.79;101334.00;5121886;29;20032;-70
2023/06/10 07:29:28;;;;;;;11.83;7.83;;;;;;;22.94;54.21;101336.91;5122995;29;20101;-70
2023/06/10 07:32:00;;;;;;;9.10;7.90;;;;;;;23.03;53.63;101334.69;5121718;29;20456;-70
2023/06/10 07:34:31;;;;;;;14.67;7.97;;;;;;;23.01;52.24;101339.25;5122135;29;20024;-69
2023/06/10 07:37:03;;;;;;;10.50;7.43;;;;;;;23.12;51.75;101332.38;5123158;29;20559;-70
2023/06/10 07:39:34;;;;;;;10.35;6.78;;;;;;;23.19;50.80;101330.22;5122633;29;20091;-70
2023/06/10 07:42:06;;;;;;;8.20;7.30;;;;;;;23.38;50.92;101340.66;5122739;29;20075;-70
2023/06/10 07:44:37;;;;;;;10.98;7.60;;;;;;;23.34;49.39;101330.28;5122707;29;20028;-70
2023/06/10 07:47:09;;;;;;;9.40;6.87;;;;;;;23.47;49.33;101332.16;5122643;29;20032;-69
2023/06/10 07:49:41;;;;;;;11.37;7.87;;;;;;;23.66;49.51;101339.91;5122543;29;20043;-70
2023/06/10 07:52:12;;;;;;;;;;;;;;;23.81;48.99;101345.25;5122838;29;20071;-70
2023/06/10 07:54:44;;;;;;;10.07;7.03;;;;;;;23.90;49.71;101339.41;5121213;29;19965;-70
2023/06/10 07:57:15;;;;;;;12.23;7.30;;;;;;;23.99;48.30;101343.34;5121607;29;20090;-70
2023/06/10 07:59:47;;;;;;;8.80;6.27;;;;;;;24.09;48.56;101339.16;5122907;29;20040;-70
2023/06/10 08:02:18;;;;;;;11.80;6.87;;;;;;;24.15;47.29;101332.59;5122375;29;20287;-70
2023/06/10 08:04:49;;;;;;;15.30;7.20;;;;;;;24.28;46.19;101332.69;5122058;29;20083;-70
2023/06/10 08:07:21;;;;;;;10.43;6.40;;;;;;;24.38;47.07;101333.84;5121800;29;20515;-70
2023/06/10 08:09:53;;;;;;;11.43;7.03;;;;;;;24.41;45.47;101339.00;5122581;29;20028;-70
2023/06/10 08:12:24;;;;;;;11.37;7.47;;;;;;;24.63;46.02;101330.50;5121789;29;20032;-70
2023/06/10 08:14:56;;;;;;;9.57;6.80;;;;;;;24.58;44.36;101345.94;5120800;29;20116;-70
2023/06/10 08:17:27;;;;;;;11.53;6.47;;;;;;;24.71;47.09;101338.91;5121960;29;20036;-70
2023/06/10 08:19:58;;;;;;;11.10;6.67;;;;;;;24.91;45.92;101340.28;5121514;29;20290;-70
2023/06/10 08:22:30;;;;;;;14.33;7.13;;;;;;;24.99;44.30;101334.47;5121898;29;20031;-70
2023/06/10 08:25:01;;;;;;;13.33;6.20;;;;;;;25.00;43.66;101340.63;5121733;29;20280;-71
2023/06/10 08:27:33;;;;;;;9.17;6.63;;;;;;;25.03;44.24;101335.09;5121682;29;20056;-71
2023/06/10 08:30:05;;;;;;;11.23;7.17;;;;;;;25.07;43.63;101336.63;5121181;29;20300;-71
2023/06/10 08:32:36;;;;;;;;;;;;;;;25.32;43.74;101329.69;5120494;29;20549;-71
2023/06/10 08:35:09;;;;;;;12.00;6.25;;;;;;;25.40;44.21;101336.22;5121354;29;19978;-69
2023/06/10 08:37:40;;;;;;;11.13;6.60;;;;;;;25.53;43.73;101330.91;5121048;29;20436;-69
2023/06/10 08:40:12;;;;;;;13.97;6.43;;;;;;;25.69;42.60;101340.56;5121703;29;20472;-70
2023/06/10 08:42:51;;;;;;;9.25;6.05;;;;;;;25.68;42.11;101345.06;5121047;29;20120;-70
2023/06/10 08:45:23;;;;;;;8.85;6.75;;;;;;;25.84;41.94;101343.06;5120504;29;20028;-70
2023/06/10 08:47:57;;;;;;;7.55;5.97;;;;;;;25.95;43.33;101338.78;5121452;29;20448;-70
2023/06/10 08:50:30;;;;;;;9.25;6.20;;;;;;;26.06;41.18;101335.41;5120217;29;20038;-70
2023/06/10 08:53:03;;;;;;;13.50;7.40;;;;;;;26.22;41.56;101337.88;5121024;29;20548;-70
2023/06/10 08:55:42;;;;;;;11.07;6.13;;;;;;;26.45;42.20;101345.09;5121545;29;20059;-70
2023/06/10 08:58:13;;;;;;;9.65;6.60;;;;;;;26.41;41.12;101348.97;5121705;29;20036;-69
2023/06/10 09:00:45;;;;;;;8.23;6.63;;;;;;;26.60;40.10;101345.84;5121041;29;20626;-70
2023/06/10 09:03:18;;;;;;;10.02;6.47;;;;;;;26.43;38.85;101333.66;5120163;29;20040;-70
2023/06/10 09:05:49;;;;;;;;;;;;;;;26.82;40.86;101337.13;5121468;29;20374;-70
2023/06/10 09:08:21;;;;;;;9.13;5.90;;;;;;;26.66;39.56;101341.88;5121091;29;19965;-71
2023/06/10 09:10:52;;;;;;;12.48;7.07;;;;;;;26.75;39.40;101338.53;5121102;29;20040;-71
2023/06/10 09:13:24;;;;;;;10.27;6.22;;;;;;;27.01;39.77;101333.09;5119527;29;20032;-71
2023/06/10 09:15:57;;;;;;;10.57;6.18;;;;;;;27.06;39.11;101336.28;5120894;29;20111;-71
2023/06/10 09:18:30;;;;;;;9.40;5.88;;;;;;;27.26;39.88;101330.31;5121202;29;20044;-71
2023/06/10 09:21:01;;;;;;;8.32;6.78;;;;;;;27.23;37.38;101335.91;5121342;29;20032;-71
2023/06/10 09:23:33;;;;;;;7.90;5.88;;;;;;;27.41;39.04;101331.00;5121345;29;20115;-71
2023/06/10 09:26:10;;;;;;;10.80;6.13;;;;;;;27.41;37.64;101330.16;5120557;29;20036;-71
2023/06/10 09:28:48;;;;;;;8.00;5.60;;;;;;;27.68;38.78;101334.38;5121632;29;20369;-70
2023/06/10 09:31:21;;;;;;;9.70;5.53;;;;;;;27.73;36.22;101340.25;5120983;29;20123;-71
2023/06/10 09:33:52;;;;;;;8.38;6.70;;;;;;;27.76;36.42;101332.84;5120989;29;20060;-71
2023/06/10 09:36:24;;;;;;;;;;;;;;;28.15;36.81;101336.09;5119789;29;20092;-71
2023/06/10 09:38:56;;;;;;;8.82;5.47;;;;;;;28.05;37.50;101334.22;5120618;29;20382;-71
2023/06/10 09:41:40;;;;;;;8.82;5.88;;;;;;;28.15;37.58;101336.09;5120735;29;20433;-71
2023/06/10 09:44:18;;;;;;;8.93;5.60;;;;;;;28.22;37.14;101333.75;5120701;29;20039;-71
2023/06/10 09:46:54;;;;;;;10.20;5.95;;;;;;;28.23;36.36;101321.25;5120637;29;20043;-71
2023/06/10 09:49:28;;;;;;;8.98;6.95;;;;;;;28.55;36.32;101327.53;5121520;29;20040;-71
2023/06/10 09:52:00;;;;;;;9.18;6.30;;;;;;;28.74;34.77;101326.09;5120247;29;20032;-71
2023/06/10 09:54:31;;;;;;;;;;;;;;;29.07;35.69;101333.19;5121005;29;20082;-71
2023/06/10 09:57:09;;;;;;;7.80;6.22;;;;;;;28.91;35.96;101322.03;5120801;29;19974;-71
2023/06/10 09:59:42;;;;;;;9.18;5.40;;;;;;;29.12;35.99;101326.59;5120602;29;20032;-71
2023/06/10 10:02:17;;;;;;;8.82;6.10;;;;;;;29.22;34.54;101322.19;5120402;29;20047;-71
2023/06/10 10:04:48;;;;;;;7.88;5.97;;;;;;;29.84;33.87;101317.88;5120515;29;20486;-70
2023/06/10 10:07:20;;;;;;;;;;;;;;;30.50;33.71;101322.03;5120837;29;20087;-71
2023/06/10 10:09:51;;;;;;;10.88;5.50;;;;;;;31.50;31.21;101312.09;5120491;29;19915;-70
2023/06/10 10:12:23;;;;;;;;;;;;;;;33.39;29.99;101314.44;5120641;29;20384;-69
2023/06/10 10:14:56;;;;;;;7.45;5.35;;;;;;;33.66;26.63;101313.47;5120437;29;20362;-69
2023/06/10 10:17:27;;;;;;;8.95;5.95;;;;;;;34.77;25.95;101312.72;5120213;29;20047;-69
2023/06/10 10:20:03;;;;;;;8.52;5.53;;;;;;;34.93;25.79;101305.63;5120816;29;20032;-69
2023/06/10 10:22:41;;;;;;;7.40;5.45;;;;;;;34.91;26.07;101311.22;5120345;29;20036;-70
2023/06/10 10:25:26;;;;;;;6.97;5.22;;;;;;;36.28;25.26;101309.56;5120334;29;20050;-71
2023/06/10 10:28:08;;;;;;;8.68;5.43;;;;;;;36.39;24.44;101304.75;5119792;29;20036;-71
2023/06/10 10:30:42;;;;;;;8.00;6.03;;;;;;;36.70;21.96;101315.63;5120212;29;20043;-71
2023/06/10 10:33:20;;;;;;;7.50;6.05;;;;;;;37.31;23.25;101307.59;5120098;29;20064;-71
2023/06/10 10:35:52;;;;;;;12.43;5.82;;;;;;;37.33;22.58;101304.69;5120869;29;20110;-71
2023/06/10 10:38:24;;;;;;;6.40;5.18;;;;;;;38.26;21.30;101308.00;5120055;29;20043;-71
2023/06/10 10:40:59;;;;;;;6.30;5.50;;;;;;;38.14;21.02;101304.84;5119829;29;20028;-71
2023/06/10 10:43:32;;;;;;;10.73;6.07;;;;;;;38.43;22.80;101306.75;5120168;29;20124;-71
2023/06/10 10:46:11;;;;;;;12.77;6.47;;;;;;;38.49;22.11;101305.94;5120330;29;20032;-71
2023/06/10 10:48:44;;;;;;;8.52;5.47;;;;;;;38.80;20.15;101307.59;5120245;29;20119;-71
2023/06/10 10:51:16;;;;;;;12.48;6.38;;;;;;;38.15;20.90;101297.59;5120220;29;20055;-70
2023/06/10 10:54:09;;;;;;;11.07;5.93;;;;;;;39.47;21.01;101305.47;5122409;29;20051;-71
2023/06/10 10:57:08;;;;;;;10.85;6.32;;;;;;;39.56;21.10;101301.59;5123752;29;20115;-71
2023/06/10 11:00:07;;;;;;;8.90;6.40;;;;;;;39.97;21.26;101297.22;5123868;29;20125;-71
2023/06/10 11:02:44;;;;;;;6.85;6.13;;;;;;;39.16;19.04;101297.69;5119917;29;20069;-70
2023/06/10 11:05:16;;;;;;;7.10;6.07;;;;;;;38.98;19.36;101289.91;5122929;29;20133;-71
2023/06/10 11:07:55;;;;;;;6.45;5.35;;;;;;;38.94;20.56;101292.19;5123444;29;20497;-70
2023/06/10 11:10:35;;;;;;;6.32;5.72;;;;;;;39.27;18.67;101293.56;5123460;29;20036;-72
2023/06/10 11:13:13;;;;;;;7.18;5.90;;;;;;;38.79;18.47;101292.28;5122068;29;20467;-72
2023/06/10 11:15:49;;;;;;;6.68;5.57;;;;;;;39.11;19.20;101289.22;5122266;29;20028;-72
2023/06/10 11:18:27;;;;;;;7.60;5.57;;;;;;;39.48;19.95;101293.53;5123424;29;20345;-70
2023/06/10 11:20:59;;;;;;;9.30;6.28;;;;;;;39.73;18.40;101285.72;5123070;29;20028;-71
2023/06/10 11:23:38;;;;;;;12.13;6.80;;;;;;;39.91;19.76;101267.97;5122999;29;20039;-71
2023/06/10 11:26:20;;;;;;;7.72;6.05;;;;;;;40.66;19.30;101273.53;5123345;29;20032;-70
2023/06/10 11:28:54;;;;;;;8.05;6.20;;;;;;;40.49;18.13;101283.19;5122838;29;20044;-70
2023/06/10 11:31:39;;;;;;;7.38;6.53;;;;;;;40.96;17.79;101281.38;5123038;29;20043;-71
2023/06/10 11:34:11;;;;;;;7.82;6.55;;;;;;;41.40;16.35;101279.06;5122064;29;20384;-70
2023/06/10 11:36:45;;;;;;;8.13;6.78;;;;;;;41.23;17.74;101268.53;5123195;29;20158;-71
2023/06/10 11:39:19;;;;;;;7.95;6.03;;;;;;;41.37;16.97;101270.25;5121543;29;20028;-71
2023/06/10 11:41:51;;;;;;;10.35;6.60;;;;;;;41.23;17.71;101267.72;5122655;29;20486;-71
2023/06/10 11:44:27;;;;;;;9.60;5.78;;;;;;;41.46;17.53;101257.19;5122594;29;20032;-71
2023/06/10 11:46:59;;;;;;;7.30;6.28;;;;;;;42.14;16.52;101260.59;5122730;29;20031;-71